sensor_id;sensor_type;location;lat;lon;timestamp;P1;durP1;ratioP1;P2;durP2;ratioP2
29362;SDS011;16349;53.672;10.014;2024-03-02T00:00:48;24.27;;;15.00;;
29362;SDS011;16349;53.672;10.014;2024-03-02T00:03:15;26.00;;;15.00;;
29362;SDS011;16349;53.672;10.014;2024-03-02T00:05:43;23.20;;;15.27;;
29362;SDS011;16349;53.672;10.014;2024-03-02T00:08:14;26.57;;;14.77;;
29362;SDS011;16349;53.672;10.014;2024-03-02T00:10:48;23.40;;;15.10;;
29362;SDS011;16349;53.672;10.014;2024-03-02T00:13:15;21.40;;;13.77;;
29362;SDS011;16349;53.672;10.014;2024-03-02T00:15:46;23.93;;;14.63;;
29362;SDS011;16349;53.672;10.014;2024-03-02T00:18:16;23.93;;;15.73;;
29362;SDS011;16349;53.672;10.014;2024-03-02T00:20:47;21.83;;;14.43;;
29362;SDS011;16349;53.672;10.014;2024-03-02T00:23:14;21.20;;;14.43;;
29362;SDS011;16349;53.672;10.014;2024-03-02T00:25:43;23.67;;;14.93;;
29362;SDS011;16349;53.672;10.014;2024-03-02T00:28:14;24.20;;;14.53;;
29362;SDS011;16349;53.672;10.014;2024-03-02T00:30:52;24.70;;;15.10;;
29362;SDS011;16349;53.672;10.014;2024-03-02T00:33:22;22.63;;;13.80;;
29362;SDS011;16349;53.672;10.014;2024-03-02T00:35:51;24.13;;;15.07;;
29362;SDS011;16349;53.672;10.014;2024-03-02T00:38:18;24.80;;;14.93;;
29362;SDS011;16349;53.672;10.014;2024-03-02T00:40:45;25.53;;;15.23;;
29362;SDS011;16349;53.672;10.014;2024-03-02T00:43:19;28.00;;;14.83;;
29362;SDS011;16349;53.672;10.014;2024-03-02T00:46:06;26.00;;;15.57;;
29362;SDS011;16349;53.672;10.014;2024-03-02T00:48:33;25.30;;;14.93;;
29362;SDS011;16349;53.672;10.014;2024-03-02T00:51:02;20.43;;;14.47;;
29362;SDS011;16349;53.672;10.014;2024-03-02T00:53:30;26.03;;;15.73;;
29362;SDS011;16349;53.672;10.014;2024-03-02T00:55:57;26.30;;;15.73;;
29362;SDS011;16349;53.672;10.014;2024-03-02T00:58:25;25.63;;;15.83;;
29362;SDS011;16349;53.672;10.014;2024-03-02T01:00:52;28.00;;;16.37;;
29362;SDS011;16349;53.672;10.014;2024-03-02T01:03:19;25.67;;;16.63;;
29362;SDS011;16349;53.672;10.014;2024-03-02T01:05:46;27.27;;;16.63;;
29362;SDS011;16349;53.672;10.014;2024-03-02T01:08:14;27.40;;;16.33;;
29362;SDS011;16349;53.672;10.014;2024-03-02T01:10:41;28.07;;;16.67;;
29362;SDS011;16349;53.672;10.014;2024-03-02T01:13:08;29.17;;;17.90;;
29362;SDS011;16349;53.672;10.014;2024-03-02T01:15:35;32.10;;;17.97;;
29362;SDS011;16349;53.672;10.014;2024-03-02T01:18:02;32.47;;;17.07;;
29362;SDS011;16349;53.672;10.014;2024-03-02T01:20:29;31.47;;;17.90;;
29362;SDS011;16349;53.672;10.014;2024-03-02T01:22:56;29.63;;;17.40;;
29362;SDS011;16349;53.672;10.014;2024-03-02T01:25:24;30.60;;;18.30;;
29362;SDS011;16349;53.672;10.014;2024-03-02T01:27:52;31.03;;;18.17;;
29362;SDS011;16349;53.672;10.014;2024-03-02T01:30:18;30.30;;;17.80;;
29362;SDS011;16349;53.672;10.014;2024-03-02T01:32:46;28.37;;;17.70;;
29362;SDS011;16349;53.672;10.014;2024-03-02T01:35:13;32.37;;;19.37;;
29362;SDS011;16349;53.672;10.014;2024-03-02T01:37:41;34.97;;;18.83;;
29362;SDS011;16349;53.672;10.014;2024-03-02T01:40:08;33.03;;;18.30;;
29362;SDS011;16349;53.672;10.014;2024-03-02T01:42:37;31.67;;;19.80;;
29362;SDS011;16349;53.672;10.014;2024-03-02T01:45:05;28.40;;;17.57;;
29362;SDS011;16349;53.672;10.014;2024-03-02T01:47:33;33.40;;;18.93;;
29362;SDS011;16349;53.672;10.014;2024-03-02T01:50:00;33.77;;;18.63;;
29362;SDS011;16349;53.672;10.014;2024-03-02T01:52:27;34.47;;;19.73;;
29362;SDS011;16349;53.672;10.014;2024-03-02T01:54:54;35.53;;;20.13;;
29362;SDS011;16349;53.672;10.014;2024-03-02T01:57:21;34.87;;;19.37;;
29362;SDS011;16349;53.672;10.014;2024-03-02T01:59:49;30.37;;;18.87;;
29362;SDS011;16349;53.672;10.014;2024-03-02T02:02:16;32.30;;;19.03;;
29362;SDS011;16349;53.672;10.014;2024-03-02T02:04:43;29.43;;;18.37;;
29362;SDS011;16349;53.672;10.014;2024-03-02T02:07:10;33.53;;;20.07;;
29362;SDS011;16349;53.672;10.014;2024-03-02T02:09:39;38.30;;;19.10;;
29362;SDS011;16349;53.672;10.014;2024-03-02T02:12:06;34.97;;;20.00;;
29362;SDS011;16349;53.672;10.014;2024-03-02T02:14:33;32.13;;;18.67;;
29362;SDS011;16349;53.672;10.014;2024-03-02T02:17:02;34.63;;;19.63;;
29362;SDS011;16349;53.672;10.014;2024-03-02T02:19:29;35.83;;;19.80;;
29362;SDS011;16349;53.672;10.014;2024-03-02T02:22:01;34.40;;;20.70;;
29362;SDS011;16349;53.672;10.014;2024-03-02T02:24:28;34.87;;;19.83;;
29362;SDS011;16349;53.672;10.014;2024-03-02T02:26:55;38.03;;;21.23;;
29362;SDS011;16349;53.672;10.014;2024-03-02T02:29:22;35.60;;;21.53;;
29362;SDS011;16349;53.672;10.014;2024-03-02T02:31:49;34.37;;;20.43;;
29362;SDS011;16349;53.672;10.014;2024-03-02T02:34:15;34.30;;;20.13;;
29362;SDS011;16349;53.672;10.014;2024-03-02T02:36:43;34.83;;;19.70;;
29362;SDS011;16349;53.672;10.014;2024-03-02T02:39:13;35.53;;;20.90;;
29362;SDS011;16349;53.672;10.014;2024-03-02T02:41:42;39.37;;;21.50;;
29362;SDS011;16349;53.672;10.014;2024-03-02T02:44:08;39.33;;;21.27;;
29362;SDS011;16349;53.672;10.014;2024-03-02T02:46:37;36.00;;;20.83;;
29362;SDS011;16349;53.672;10.014;2024-03-02T02:49:04;35.73;;;21.47;;
29362;SDS011;16349;53.672;10.014;2024-03-02T02:51:31;36.43;;;20.77;;
29362;SDS011;16349;53.672;10.014;2024-03-02T02:53:58;39.23;;;21.50;;
29362;SDS011;16349;53.672;10.014;2024-03-02T02:56:26;39.57;;;22.00;;
29362;SDS011;16349;53.672;10.014;2024-03-02T02:58:53;37.37;;;21.13;;
29362;SDS011;16349;53.672;10.014;2024-03-02T03:01:20;36.83;;;21.57;;
29362;SDS011;16349;53.672;10.014;2024-03-02T03:03:48;40.13;;;21.37;;
29362;SDS011;16349;53.672;10.014;2024-03-02T03:06:14;35.50;;;20.23;;
29362;SDS011;16349;53.672;10.014;2024-03-02T03:08:41;35.13;;;20.37;;
29362;SDS011;16349;53.672;10.014;2024-03-02T03:11:08;38.43;;;21.90;;
29362;SDS011;16349;53.672;10.014;2024-03-02T03:13:36;34.17;;;20.90;;
29362;SDS011;16349;53.672;10.014;2024-03-02T03:16:03;33.73;;;20.07;;
29362;SDS011;16349;53.672;10.014;2024-03-02T03:18:30;34.53;;;20.17;;
29362;SDS011;16349;53.672;10.014;2024-03-02T03:20:57;37.03;;;20.77;;
29362;SDS011;16349;53.672;10.014;2024-03-02T03:23:24;36.33;;;21.30;;
29362;SDS011;16349;53.672;10.014;2024-03-02T03:25:51;39.27;;;21.07;;
29362;SDS011;16349;53.672;10.014;2024-03-02T03:28:18;37.07;;;21.00;;
29362;SDS011;16349;53.672;10.014;2024-03-02T03:30:46;34.13;;;20.77;;
29362;SDS011;16349;53.672;10.014;2024-03-02T03:33:13;36.57;;;21.07;;
29362;SDS011;16349;53.672;10.014;2024-03-02T03:35:39;36.90;;;21.90;;
29362;SDS011;16349;53.672;10.014;2024-03-02T03:38:06;34.87;;;19.20;;
29362;SDS011;16349;53.672;10.014;2024-03-02T03:40:33;36.97;;;22.13;;
29362;SDS011;16349;53.672;10.014;2024-03-02T03:43:00;35.23;;;21.27;;
29362;SDS011;16349;53.672;10.014;2024-03-02T03:45:27;37.57;;;20.80;;
29362;SDS011;16349;53.672;10.014;2024-03-02T03:47:56;36.73;;;21.43;;
29362;SDS011;16349;53.672;10.014;2024-03-02T03:50:23;38.20;;;21.30;;
29362;SDS011;16349;53.672;10.014;2024-03-02T03:52:50;37.77;;;20.93;;
29362;SDS011;16349;53.672;10.014;2024-03-02T03:55:17;32.87;;;20.17;;
29362;SDS011;16349;53.672;10.014;2024-03-02T03:57:44;36.90;;;20.40;;
29362;SDS011;16349;53.672;10.014;2024-03-02T04:00:11;35.90;;;20.40;;
29362;SDS011;16349;53.672;10.014;2024-03-02T04:02:38;35.93;;;21.17;;
29362;SDS011;16349;53.672;10.014;2024-03-02T04:05:07;32.63;;;20.33;;
29362;SDS011;16349;53.672;10.014;2024-03-02T04:07:35;32.70;;;21.30;;
29362;SDS011;16349;53.672;10.014;2024-03-02T04:10:08;38.20;;;21.53;;
29362;SDS011;16349;53.672;10.014;2024-03-02T04:12:37;37.83;;;20.43;;
29362;SDS011;16349;53.672;10.014;2024-03-02T04:15:05;35.67;;;20.43;;
29362;SDS011;16349;53.672;10.014;2024-03-02T04:17:32;37.27;;;20.20;;
29362;SDS011;16349;53.672;10.014;2024-03-02T04:20:01;39.20;;;21.47;;
29362;SDS011;16349;53.672;10.014;2024-03-02T04:22:32;38.00;;;20.87;;
29362;SDS011;16349;53.672;10.014;2024-03-02T04:24:59;33.63;;;20.47;;
29362;SDS011;16349;53.672;10.014;2024-03-02T04:27:26;33.37;;;19.73;;
29362;SDS011;16349;53.672;10.014;2024-03-02T04:29:53;36.20;;;20.93;;
29362;SDS011;16349;53.672;10.014;2024-03-02T04:32:20;37.53;;;20.73;;
29362;SDS011;16349;53.672;10.014;2024-03-02T04:34:47;34.47;;;20.10;;
29362;SDS011;16349;53.672;10.014;2024-03-02T04:37:14;31.40;;;20.17;;
29362;SDS011;16349;53.672;10.014;2024-03-02T04:39:43;33.13;;;19.43;;
29362;SDS011;16349;53.672;10.014;2024-03-02T04:42:10;35.90;;;20.67;;
29362;SDS011;16349;53.672;10.014;2024-03-02T04:44:37;33.07;;;19.83;;
29362;SDS011;16349;53.672;10.014;2024-03-02T04:47:04;29.50;;;19.23;;
29362;SDS011;16349;53.672;10.014;2024-03-02T04:49:31;34.27;;;20.43;;
29362;SDS011;16349;53.672;10.014;2024-03-02T04:51:58;33.77;;;19.80;;
29362;SDS011;16349;53.672;10.014;2024-03-02T04:54:24;30.07;;;18.67;;
29362;SDS011;16349;53.672;10.014;2024-03-02T04:56:53;35.00;;;19.33;;
29362;SDS011;16349;53.672;10.014;2024-03-02T04:59:19;30.23;;;19.23;;
29362;SDS011;16349;53.672;10.014;2024-03-02T05:01:46;28.43;;;18.10;;
29362;SDS011;16349;53.672;10.014;2024-03-02T05:04:13;32.67;;;18.40;;
29362;SDS011;16349;53.672;10.014;2024-03-02T05:06:40;28.80;;;19.53;;
29362;SDS011;16349;53.672;10.014;2024-03-02T05:09:07;30.37;;;18.00;;
29362;SDS011;16349;53.672;10.014;2024-03-02T05:11:34;32.83;;;19.27;;
29362;SDS011;16349;53.672;10.014;2024-03-02T05:14:23;30.03;;;18.93;;
29362;SDS011;16349;53.672;10.014;2024-03-02T05:16:49;27.47;;;17.97;;
29362;SDS011;16349;53.672;10.014;2024-03-02T05:19:17;31.13;;;19.17;;
29362;SDS011;16349;53.672;10.014;2024-03-02T05:21:43;30.27;;;19.03;;
29362;SDS011;16349;53.672;10.014;2024-03-02T05:24:10;29.33;;;18.07;;
29362;SDS011;16349;53.672;10.014;2024-03-02T05:26:37;30.07;;;18.77;;
29362;SDS011;16349;53.672;10.014;2024-03-02T05:29:06;33.63;;;19.50;;
29362;SDS011;16349;53.672;10.014;2024-03-02T05:31:34;30.83;;;18.03;;
29362;SDS011;16349;53.672;10.014;2024-03-02T05:34:01;32.27;;;19.17;;
29362;SDS011;16349;53.672;10.014;2024-03-02T05:36:28;34.07;;;19.63;;
29362;SDS011;16349;53.672;10.014;2024-03-02T05:38:55;30.70;;;18.40;;
29362;SDS011;16349;53.672;10.014;2024-03-02T05:41:22;31.47;;;19.27;;
29362;SDS011;16349;53.672;10.014;2024-03-02T05:43:48;27.23;;;17.50;;
29362;SDS011;16349;53.672;10.014;2024-03-02T05:46:15;34.23;;;20.37;;
29362;SDS011;16349;53.672;10.014;2024-03-02T05:48:43;31.63;;;18.50;;
29362;SDS011;16349;53.672;10.014;2024-03-02T05:51:10;30.70;;;18.53;;
29362;SDS011;16349;53.672;10.014;2024-03-02T05:53:37;30.50;;;18.47;;
29362;SDS011;16349;53.672;10.014;2024-03-02T05:56:04;29.00;;;17.57;;
29362;SDS011;16349;53.672;10.014;2024-03-02T05:58:31;27.80;;;17.33;;
29362;SDS011;16349;53.672;10.014;2024-03-02T06:01:11;29.00;;;17.70;;
29362;SDS011;16349;53.672;10.014;2024-03-02T06:03:38;28.03;;;18.17;;
29362;SDS011;16349;53.672;10.014;2024-03-02T06:06:06;29.30;;;17.90;;
29362;SDS011;16349;53.672;10.014;2024-03-02T06:08:33;27.07;;;17.23;;
29362;SDS011;16349;53.672;10.014;2024-03-02T06:11:00;30.13;;;18.37;;
29362;SDS011;16349;53.672;10.014;2024-03-02T06:13:27;29.53;;;17.27;;
29362;SDS011;16349;53.672;10.014;2024-03-02T06:15:54;30.23;;;17.67;;
29362;SDS011;16349;53.672;10.014;2024-03-02T06:18:21;32.77;;;18.27;;
29362;SDS011;16349;53.672;10.014;2024-03-02T06:20:48;27.23;;;17.80;;
29362;SDS011;16349;53.672;10.014;2024-03-02T06:23:16;31.17;;;17.27;;
29362;SDS011;16349;53.672;10.014;2024-03-02T06:25:43;27.03;;;17.60;;
29362;SDS011;16349;53.672;10.014;2024-03-02T06:28:10;31.17;;;18.70;;
29362;SDS011;16349;53.672;10.014;2024-03-02T06:30:37;30.77;;;17.80;;
29362;SDS011;16349;53.672;10.014;2024-03-02T06:33:04;26.53;;;16.13;;
29362;SDS011;16349;53.672;10.014;2024-03-02T06:35:31;25.83;;;17.10;;
29362;SDS011;16349;53.672;10.014;2024-03-02T06:37:58;26.13;;;16.73;;
29362;SDS011;16349;53.672;10.014;2024-03-02T06:40:26;27.00;;;18.10;;
29362;SDS011;16349;53.672;10.014;2024-03-02T06:42:53;26.23;;;16.20;;
29362;SDS011;16349;53.672;10.014;2024-03-02T06:45:19;29.03;;;17.03;;
29362;SDS011;16349;53.672;10.014;2024-03-02T06:47:46;28.33;;;17.47;;
29362;SDS011;16349;53.672;10.014;2024-03-02T06:50:13;30.03;;;18.07;;
29362;SDS011;16349;53.672;10.014;2024-03-02T06:52:40;30.67;;;17.27;;
29362;SDS011;16349;53.672;10.014;2024-03-02T06:55:07;27.70;;;17.07;;
29362;SDS011;16349;53.672;10.014;2024-03-02T06:57:35;29.67;;;16.70;;
29362;SDS011;16349;53.672;10.014;2024-03-02T07:00:02;26.30;;;17.13;;
29362;SDS011;16349;53.672;10.014;2024-03-02T07:02:30;31.27;;;16.90;;
29362;SDS011;16349;53.672;10.014;2024-03-02T07:04:57;29.53;;;17.33;;
29362;SDS011;16349;53.672;10.014;2024-03-02T07:07:24;28.17;;;17.87;;
29362;SDS011;16349;53.672;10.014;2024-03-02T07:09:51;26.00;;;16.93;;
29362;SDS011;16349;53.672;10.014;2024-03-02T07:12:17;27.77;;;17.47;;
29362;SDS011;16349;53.672;10.014;2024-03-02T07:14:46;27.13;;;16.87;;
29362;SDS011;16349;53.672;10.014;2024-03-02T07:17:43;26.57;;;16.63;;
29362;SDS011;16349;53.672;10.014;2024-03-02T07:20:10;26.17;;;16.73;;
29362;SDS011;16349;53.672;10.014;2024-03-02T07:22:38;27.93;;;16.90;;
29362;SDS011;16349;53.672;10.014;2024-03-02T07:25:05;25.60;;;17.27;;
29362;SDS011;16349;53.672;10.014;2024-03-02T07:27:33;27.97;;;17.03;;
29362;SDS011;16349;53.672;10.014;2024-03-02T07:30:01;28.53;;;17.30;;
29362;SDS011;16349;53.672;10.014;2024-03-02T07:32:29;26.30;;;16.90;;
29362;SDS011;16349;53.672;10.014;2024-03-02T07:34:55;27.07;;;16.97;;
29362;SDS011;16349;53.672;10.014;2024-03-02T07:37:22;26.43;;;15.87;;
29362;SDS011;16349;53.672;10.014;2024-03-02T07:39:49;23.07;;;15.67;;
29362;SDS011;16349;53.672;10.014;2024-03-02T07:42:17;29.80;;;17.30;;
29362;SDS011;16349;53.672;10.014;2024-03-02T07:44:44;24.87;;;16.43;;
29362;SDS011;16349;53.672;10.014;2024-03-02T07:47:12;24.23;;;16.53;;
29362;SDS011;16349;53.672;10.014;2024-03-02T07:49:39;26.67;;;16.63;;
29362;SDS011;16349;53.672;10.014;2024-03-02T07:52:06;28.03;;;17.57;;
29362;SDS011;16349;53.672;10.014;2024-03-02T07:54:33;22.97;;;15.77;;
29362;SDS011;16349;53.672;10.014;2024-03-02T07:57:00;25.00;;;16.20;;
29362;SDS011;16349;53.672;10.014;2024-03-02T07:59:27;26.07;;;16.40;;
29362;SDS011;16349;53.672;10.014;2024-03-02T08:01:54;24.93;;;16.10;;
29362;SDS011;16349;53.672;10.014;2024-03-02T08:04:22;23.40;;;15.40;;
29362;SDS011;16349;53.672;10.014;2024-03-02T08:06:49;25.20;;;16.87;;
29362;SDS011;16349;53.672;10.014;2024-03-02T08:09:16;27.23;;;16.60;;
29362;SDS011;16349;53.672;10.014;2024-03-02T08:11:43;28.43;;;16.73;;
29362;SDS011;16349;53.672;10.014;2024-03-02T08:14:10;28.80;;;15.60;;
29362;SDS011;16349;53.672;10.014;2024-03-02T08:16:37;25.73;;;15.67;;
29362;SDS011;16349;53.672;10.014;2024-03-02T08:19:04;24.33;;;15.50;;
29362;SDS011;16349;53.672;10.014;2024-03-02T08:21:32;26.83;;;16.00;;
29362;SDS011;16349;53.672;10.014;2024-03-02T08:24:00;23.90;;;15.27;;
29362;SDS011;16349;53.672;10.014;2024-03-02T08:26:28;23.77;;;15.97;;
29362;SDS011;16349;53.672;10.014;2024-03-02T08:28:56;23.40;;;15.70;;
29362;SDS011;16349;53.672;10.014;2024-03-02T08:31:23;23.77;;;15.53;;
29362;SDS011;16349;53.672;10.014;2024-03-02T08:33:50;22.33;;;14.87;;
29362;SDS011;16349;53.672;10.014;2024-03-02T08:36:17;19.57;;;14.23;;
29362;SDS011;16349;53.672;10.014;2024-03-02T08:38:46;26.83;;;15.23;;
29362;SDS011;16349;53.672;10.014;2024-03-02T08:41:14;22.77;;;14.30;;
29362;SDS011;16349;53.672;10.014;2024-03-02T08:43:41;21.07;;;14.97;;
29362;SDS011;16349;53.672;10.014;2024-03-02T08:46:09;23.97;;;15.17;;
29362;SDS011;16349;53.672;10.014;2024-03-02T08:48:35;24.07;;;15.57;;
29362;SDS011;16349;53.672;10.014;2024-03-02T08:51:02;22.93;;;14.33;;
29362;SDS011;16349;53.672;10.014;2024-03-02T08:53:32;22.10;;;15.47;;
29362;SDS011;16349;53.672;10.014;2024-03-02T08:56:01;21.40;;;15.13;;
29362;SDS011;16349;53.672;10.014;2024-03-02T08:58:30;21.37;;;13.70;;
29362;SDS011;16349;53.672;10.014;2024-03-02T09:00:57;22.93;;;15.00;;
29362;SDS011;16349;53.672;10.014;2024-03-02T09:03:24;20.40;;;14.03;;
29362;SDS011;16349;53.672;10.014;2024-03-02T09:05:51;24.60;;;15.83;;
29362;SDS011;16349;53.672;10.014;2024-03-02T09:08:18;25.00;;;15.77;;
29362;SDS011;16349;53.672;10.014;2024-03-02T09:10:45;24.90;;;16.10;;
29362;SDS011;16349;53.672;10.014;2024-03-02T09:13:13;21.77;;;13.97;;
29362;SDS011;16349;53.672;10.014;2024-03-02T09:15:40;23.90;;;15.53;;
29362;SDS011;16349;53.672;10.014;2024-03-02T09:18:07;23.93;;;15.33;;
29362;SDS011;16349;53.672;10.014;2024-03-02T09:20:34;23.53;;;15.40;;
29362;SDS011;16349;53.672;10.014;2024-03-02T09:23:01;18.30;;;13.37;;
29362;SDS011;16349;53.672;10.014;2024-03-02T09:25:28;20.23;;;14.33;;
29362;SDS011;16349;53.672;10.014;2024-03-02T09:27:54;22.77;;;14.47;;
29362;SDS011;16349;53.672;10.014;2024-03-02T09:30:23;20.20;;;14.17;;
29362;SDS011;16349;53.672;10.014;2024-03-02T09:32:49;23.97;;;14.87;;
29362;SDS011;16349;53.672;10.014;2024-03-02T09:35:16;20.70;;;13.97;;
29362;SDS011;16349;53.672;10.014;2024-03-02T09:37:43;22.90;;;13.20;;
29362;SDS011;16349;53.672;10.014;2024-03-02T09:40:10;19.47;;;13.87;;
29362;SDS011;16349;53.672;10.014;2024-03-02T09:42:37;20.70;;;14.60;;
29362;SDS011;16349;53.672;10.014;2024-03-02T09:45:05;20.00;;;13.57;;
29362;SDS011;16349;53.672;10.014;2024-03-02T09:47:34;21.70;;;13.60;;
29362;SDS011;16349;53.672;10.014;2024-03-02T09:50:01;18.23;;;12.87;;
29362;SDS011;16349;53.672;10.014;2024-03-02T09:52:29;19.97;;;14.00;;
29362;SDS011;16349;53.672;10.014;2024-03-02T09:54:57;21.37;;;14.30;;
29362;SDS011;16349;53.672;10.014;2024-03-02T09:57:24;18.27;;;12.87;;
29362;SDS011;16349;53.672;10.014;2024-03-02T09:59:51;21.93;;;14.03;;
29362;SDS011;16349;53.672;10.014;2024-03-02T10:02:17;19.67;;;13.50;;
29362;SDS011;16349;53.672;10.014;2024-03-02T10:04:45;19.40;;;13.40;;
29362;SDS011;16349;53.672;10.014;2024-03-02T10:07:15;20.53;;;13.73;;
29362;SDS011;16349;53.672;10.014;2024-03-02T10:09:43;17.17;;;12.20;;
29362;SDS011;16349;53.672;10.014;2024-03-02T10:12:11;18.23;;;12.70;;
29362;SDS011;16349;53.672;10.014;2024-03-02T10:14:39;21.53;;;12.60;;
29362;SDS011;16349;53.672;10.014;2024-03-02T10:17:06;16.30;;;10.83;;
29362;SDS011;16349;53.672;10.014;2024-03-02T10:19:34;20.17;;;11.80;;
29362;SDS011;16349;53.672;10.014;2024-03-02T10:22:03;16.70;;;11.43;;
29362;SDS011;16349;53.672;10.014;2024-03-02T10:24:35;15.67;;;11.90;;
29362;SDS011;16349;53.672;10.014;2024-03-02T10:27:07;14.80;;;11.07;;
29362;SDS011;16349;53.672;10.014;2024-03-02T10:29:38;18.37;;;13.20;;
29362;SDS011;16349;53.672;10.014;2024-03-02T10:32:06;15.20;;;11.43;;
29362;SDS011;16349;53.672;10.014;2024-03-02T10:34:36;16.43;;;11.93;;
29362;SDS011;16349;53.672;10.014;2024-03-02T10:37:04;13.77;;;10.03;;
29362;SDS011;16349;53.672;10.014;2024-03-02T10:39:32;16.77;;;11.03;;
29362;SDS011;16349;53.672;10.014;2024-03-02T10:42:02;15.10;;;10.70;;
29362;SDS011;16349;53.672;10.014;2024-03-02T10:44:30;14.90;;;10.40;;
29362;SDS011;16349;53.672;10.014;2024-03-02T10:46:57;17.27;;;10.27;;
29362;SDS011;16349;53.672;10.014;2024-03-02T10:49:28;15.10;;;10.83;;
29362;SDS011;16349;53.672;10.014;2024-03-02T10:51:56;13.87;;;10.57;;
29362;SDS011;16349;53.672;10.014;2024-03-02T10:54:25;13.17;;;10.33;;
29362;SDS011;16349;53.672;10.014;2024-03-02T10:56:54;14.67;;;11.03;;
29362;SDS011;16349;53.672;10.014;2024-03-02T10:59:26;15.87;;;10.13;;
29362;SDS011;16349;53.672;10.014;2024-03-02T11:01:55;15.43;;;10.63;;
29362;SDS011;16349;53.672;10.014;2024-03-02T11:04:24;13.07;;;10.43;;
29362;SDS011;16349;53.672;10.014;2024-03-02T11:06:52;12.40;;;9.43;;
29362;SDS011;16349;53.672;10.014;2024-03-02T11:09:21;12.93;;;9.83;;
29362;SDS011;16349;53.672;10.014;2024-03-02T11:11:54;12.67;;;9.40;;
29362;SDS011;16349;53.672;10.014;2024-03-02T11:14:27;12.70;;;9.17;;
29362;SDS011;16349;53.672;10.014;2024-03-02T11:16:56;15.43;;;10.07;;
29362;SDS011;16349;53.672;10.014;2024-03-02T11:19:24;13.13;;;9.77;;
29362;SDS011;16349;53.672;10.014;2024-03-02T11:21:52;12.43;;;9.30;;
29362;SDS011;16349;53.672;10.014;2024-03-02T11:24:32;13.23;;;9.07;;
29362;SDS011;16349;53.672;10.014;2024-03-02T11:27:01;11.07;;;8.07;;
29362;SDS011;16349;53.672;10.014;2024-03-02T11:29:43;13.10;;;8.80;;
29362;SDS011;16349;53.672;10.014;2024-03-02T11:32:18;12.20;;;9.47;;
29362;SDS011;16349;53.672;10.014;2024-03-02T11:34:48;12.93;;;8.73;;
29362;SDS011;16349;53.672;10.014;2024-03-02T11:37:16;13.07;;;8.93;;
29362;SDS011;16349;53.672;10.014;2024-03-02T11:39:46;11.47;;;8.90;;
29362;SDS011;16349;53.672;10.014;2024-03-02T11:42:16;11.40;;;8.83;;
29362;SDS011;16349;53.672;10.014;2024-03-02T11:44:44;12.80;;;9.57;;
29362;SDS011;16349;53.672;10.014;2024-03-02T11:47:13;9.90;;;8.67;;
29362;SDS011;16349;53.672;10.014;2024-03-02T11:49:41;12.73;;;8.60;;
29362;SDS011;16349;53.672;10.014;2024-03-02T11:52:11;10.00;;;8.03;;
29362;SDS011;16349;53.672;10.014;2024-03-02T11:54:39;10.30;;;7.87;;
29362;SDS011;16349;53.672;10.014;2024-03-02T11:57:11;10.30;;;8.10;;
29362;SDS011;16349;53.672;10.014;2024-03-02T11:59:40;11.57;;;8.57;;
29362;SDS011;16349;53.672;10.014;2024-03-02T12:02:12;11.50;;;7.87;;
29362;SDS011;16349;53.672;10.014;2024-03-02T12:04:42;10.47;;;8.00;;
29362;SDS011;16349;53.672;10.014;2024-03-02T12:07:10;10.93;;;8.13;;
29362;SDS011;16349;53.672;10.014;2024-03-02T12:09:37;13.80;;;8.73;;
29362;SDS011;16349;53.672;10.014;2024-03-02T12:12:05;10.87;;;8.50;;
29362;SDS011;16349;53.672;10.014;2024-03-02T12:14:33;11.97;;;8.87;;
29362;SDS011;16349;53.672;10.014;2024-03-02T12:17:02;11.37;;;8.57;;
29362;SDS011;16349;53.672;10.014;2024-03-02T12:19:31;9.00;;;7.37;;
29362;SDS011;16349;53.672;10.014;2024-03-02T12:21:58;7.07;;;5.83;;
29362;SDS011;16349;53.672;10.014;2024-03-02T12:24:26;8.13;;;6.10;;
29362;SDS011;16349;53.672;10.014;2024-03-02T12:26:54;7.47;;;6.07;;
29362;SDS011;16349;53.672;10.014;2024-03-02T12:29:21;10.63;;;6.93;;
29362;SDS011;16349;53.672;10.014;2024-03-02T12:31:49;12.23;;;7.37;;
29362;SDS011;16349;53.672;10.014;2024-03-02T12:34:18;7.77;;;6.07;;
29362;SDS011;16349;53.672;10.014;2024-03-02T12:36:46;6.70;;;5.50;;
29362;SDS011;16349;53.672;10.014;2024-03-02T12:39:15;7.43;;;5.93;;
29362;SDS011;16349;53.672;10.014;2024-03-02T12:41:42;9.73;;;6.40;;
29362;SDS011;16349;53.672;10.014;2024-03-02T12:44:09;8.73;;;6.33;;
29362;SDS011;16349;53.672;10.014;2024-03-02T12:46:36;9.33;;;6.27;;
29362;SDS011;16349;53.672;10.014;2024-03-02T12:49:07;7.00;;;6.27;;
29362;SDS011;16349;53.672;10.014;2024-03-02T12:51:38;7.43;;;6.27;;
29362;SDS011;16349;53.672;10.014;2024-03-02T12:54:06;8.80;;;6.70;;
29362;SDS011;16349;53.672;10.014;2024-03-02T12:56:33;9.43;;;6.60;;
29362;SDS011;16349;53.672;10.014;2024-03-02T12:59:01;10.83;;;6.97;;
29362;SDS011;16349;53.672;10.014;2024-03-02T13:01:28;9.00;;;6.93;;
29362;SDS011;16349;53.672;10.014;2024-03-02T13:03:56;8.00;;;6.63;;
29362;SDS011;16349;53.672;10.014;2024-03-02T13:06:24;8.17;;;6.50;;
29362;SDS011;16349;53.672;10.014;2024-03-02T13:08:55;10.20;;;6.50;;
29362;SDS011;16349;53.672;10.014;2024-03-02T13:11:22;10.47;;;7.47;;
29362;SDS011;16349;53.672;10.014;2024-03-02T13:13:49;10.80;;;7.80;;
29362;SDS011;16349;53.672;10.014;2024-03-02T13:16:16;10.17;;;7.73;;
29362;SDS011;16349;53.672;10.014;2024-03-02T13:18:45;12.30;;;7.97;;
29362;SDS011;16349;53.672;10.014;2024-03-02T13:21:12;10.63;;;8.03;;
29362;SDS011;16349;53.672;10.014;2024-03-02T13:23:38;11.07;;;8.13;;
29362;SDS011;16349;53.672;10.014;2024-03-02T13:26:07;10.50;;;8.13;;
29362;SDS011;16349;53.672;10.014;2024-03-02T13:28:35;10.87;;;8.33;;
29362;SDS011;16349;53.672;10.014;2024-03-02T13:31:03;10.27;;;7.47;;
29362;SDS011;16349;53.672;10.014;2024-03-02T13:33:31;10.03;;;7.60;;
29362;SDS011;16349;53.672;10.014;2024-03-02T13:35:58;11.37;;;7.57;;
29362;SDS011;16349;53.672;10.014;2024-03-02T13:38:25;8.47;;;6.43;;
29362;SDS011;16349;53.672;10.014;2024-03-02T13:40:52;11.40;;;7.40;;
29362;SDS011;16349;53.672;10.014;2024-03-02T13:43:21;11.17;;;7.03;;
29362;SDS011;16349;53.672;10.014;2024-03-02T13:45:49;9.50;;;6.50;;
29362;SDS011;16349;53.672;10.014;2024-03-02T13:48:17;10.83;;;7.23;;
29362;SDS011;16349;53.672;10.014;2024-03-02T13:50:44;9.97;;;7.53;;
29362;SDS011;16349;53.672;10.014;2024-03-02T13:53:12;10.57;;;7.03;;
29362;SDS011;16349;53.672;10.014;2024-03-02T13:55:39;11.00;;;6.90;;
29362;SDS011;16349;53.672;10.014;2024-03-02T13:58:07;8.67;;;7.23;;
29362;SDS011;16349;53.672;10.014;2024-03-02T14:00:36;10.53;;;7.33;;
29362;SDS011;16349;53.672;10.014;2024-03-02T14:03:03;9.80;;;7.10;;
29362;SDS011;16349;53.672;10.014;2024-03-02T14:05:32;9.40;;;7.30;;
29362;SDS011;16349;53.672;10.014;2024-03-02T14:07:59;9.43;;;8.00;;
29362;SDS011;16349;53.672;10.014;2024-03-02T14:10:26;9.10;;;6.93;;
29362;SDS011;16349;53.672;10.014;2024-03-02T14:12:54;9.20;;;6.50;;
29362;SDS011;16349;53.672;10.014;2024-03-02T14:15:21;9.37;;;7.17;;
29362;SDS011;16349;53.672;10.014;2024-03-02T14:17:49;8.20;;;6.73;;